HDGA4: War Eagle Creek At Hindsville, AR

                                SHEF ID:       HDGA4     War Eagle Crk nr Hindsville,AR
STATION TYPE:

STAGE RIV-FLOW WTR-TEMP CONDUCT BAT-LOAD
ft cfs F umho/cm volt
Ccp-Rev Ccp-Rev Ccp-Rev Ccp-Rev Ccp-Rev
(America/Chicago)
05/01 00:00 2.79 507 63.18 ---- 12.77
05/01 01:00 2.78 504 62.87 ---- 12.75
05/01 02:00 2.75 494 62.51 ---- 12.72
05/01 03:00 2.74 491 62.17 ---- 12.70
05/01 04:00 2.72 485 61.81 ---- 12.65
05/01 05:00 2.69 475 61.50 ---- 12.63
05/01 06:00 2.67 469 61.16 ---- 12.60
05/01 07:00 2.65 462 60.85 ---- 12.57
05/01 08:00 2.63 456 60.66 ---- 12.59
05/01 09:00 2.60 447 60.80 ---- 12.75
05/01 10:00 2.58 441 60.91 ---- 13.13
05/01 11:00 2.57 438 61.25 ---- 13.41
05/01 12:00 2.55 432 61.75 ---- 13.62
05/01 13:00 2.52 423 62.33 ---- 13.57
05/01 14:00 2.51 420 62.89 ---- 14.12
05/01 15:00 2.49 414 63.45 ---- 13.89
05/01 16:00 2.49 414 63.88 ---- 13.88
05/01 17:00 2.47 408 64.13 ---- 13.42
05/01 18:00 2.45 402 64.27 ---- 13.11
05/01 19:00 2.44 399 64.17 ---- 12.95
05/01 20:00 2.44 399 63.97 ---- 12.87
05/01 21:00 2.42 393 63.63 ---- 12.83
05/01 22:00 2.40 387 63.25 ---- 12.80
05/01 23:00 2.40 387 62.91 ---- 12.78
Data processed at Sat 02May2026 04:13 GMT

NOTICE: If you are parsing this page

Please convert to using our Data API. Starting early 2026 we will be migrating to: https://water.usace.army.mil with modern pages rendered in JavaScript. When this migration completes you will no longer be able to scrape this page! CWMSDataAPI (CDA)

Timeseries IDs (TSIDs)

TSIDs used from left to right in the data table
HIND.Stage.Inst.1Hour.0.Ccp-Rev
HIND.Flow.Inst.1Hour.0.Ccp-Rev
HIND.Temp-Water.Inst.1Hour.0.Ccp-Rev
HIND.Cond.Inst.1Hour.0.Ccp-Rev
HIND.Volt-Battery Load.Inst.1Hour.0.Ccp-Rev

                            

All information presented herein is the property of the government of the United States of America and may be revised or deleted at any time without prior notice. Dissemination of this information without the expressed written consent of the Public Affairs Office, Tulsa District U.S. Army Corps of Engineers is strictly prohibited. These data are gathered electronically and, as presented, have NOT undergone any form of quality control. These data are NOT guaranteed to be valid or correct.